Garden State — KGSG — position and weather

sailwx.info

Track history (hours):
 
Tides and Currents Weather Stations Pressure Air Temp Water Temp Dewpoint Dewpoint Depression Visibility Wind Speed Wind Dir Waves Ship Positions

Garden State

Owner: Crowley Petroleum Services, Inc., Jacksonville, FL. More information available from US FCC via Universal Licensing System and Coast Guard Vessel Documentation Center.

Last reported at 2018-Jan-18 14:42 UTC. Time now 2018-Jan-20 17:23 UTC.
Position N 24°37' W 080°47'.

Length 186 m; draft 8.6 m.

Type: Tanker. MMSI: 367102000.

Date/timePositionNaut miles runAvg speedWind from/ knotsBaromVisibWave heightAir tempDewpointWater temp
2018-Jan-18 14:42N 24°37' W 080°47'313.8
2018-Jan-18 14:27N 24°39' W 080°44'713.6
2018-Jan-18 13:58N 24°43' W 080°38'713.7
2018-Jan-18 13:28N 24°47' W 080°32'813.9
2018-Jan-18 12:53N 24°52' W 080°24'513.9
2018-Jan-18 12:30N 24°55' W 080°20'2113.2
2018-Jan-18 10:53N 25°12' W 080°06'713.3
2018-Jan-18 10:20N 25°19' W 080°03'613.1
2018-Jan-18 09:53N 25°25' W 080°01'513.2
2018-Jan-18 09:30N 25°30' W 080°01'713.3
2018-Jan-18 09:01N 25°36' W 080°00'713.9
2018-Jan-18 08:31N 25°43' W 079°59'713.8
2018-Jan-18 08:00N 25°50' W 079°59'713.4
2018-Jan-18 07:30N 25°57' W 079°60'612.9
2018-Jan-18 07:00N 26°03' W 080°01'510.0
2018-Jan-18 06:30N 26°06' W 080°06'1 1.6
2018-Jan-18 05:56N 26°06' W 080°07'0 0.0
2018-Jan-18 05:26N 26°06' W 080°07'0 0.0
2018-Jan-18 04:56N 26°06' W 080°07'0 0.0
2018-Jan-18 04:26N 26°06' W 080°07'0 0.0
2018-Jan-18 03:56N 26°06' W 080°07'0 0.0
2018-Jan-18 03:26N 26°06' W 080°07'0 0.0
2018-Jan-18 02:59N 26°06' W 080°07'0 0.0
2018-Jan-18 02:29N 26°06' W 080°07'0 0.0
2018-Jan-18 01:59N 26°06' W 080°07'0 0.0
2018-Jan-18 01:29N 26°06' W 080°07'0 0.0
2018-Jan-18 00:59N 26°06' W 080°07'0 0.0
2018-Jan-17 23:59N 26°06' W 080°07'0 0.0
2018-Jan-17 23:56N 26°06' W 080°07'  
2018-Jan-09 16:01N 24°20' W 081°50'014.3
2018-Jan-09 16:00N 24°20' W 081°49'714.0
2018-Jan-09 15:30N 24°21' W 081°42'714.1
2018-Jan-09 15:00N 24°23' W 081°34'714.0
2018-Jan-09 14:30N 24°25' W 081°27'713.9
2018-Jan-09 14:00N 24°27' W 081°20'714.4
2018-Jan-09 13:30N 24°29' W 081°12'713.9
2018-Jan-09 13:00N 24°31' W 081°05'713.9
2018-Jan-09 12:30N 24°33' W 080°58'1613.8
2018-Jan-09 11:19N 24°40' W 080°41'513.7
2018-Jan-09 10:59N 24°43' W 080°37'4513.1
2018-Jan-09 07:32N 25°17' W 080°04'013.3
2018-Jan-09 07:30N 25°17' W 080°04'613.0
2018-Jan-09 07:00N 25°23' W 080°02'612.6
2018-Jan-09 06:30N 25°29' W 080°01'612.5
2018-Jan-09 06:00N 25°36' W 080°00'612.4
2018-Jan-09 05:30N 25°42' W 079°60'612.3
2018-Jan-09 05:00N 25°48' W 079°60'612.3
2018-Jan-09 04:30N 25°54' W 079°60'611.3
2018-Jan-09 04:00N 25°60' W 079°59'5 9.1
2018-Jan-09 03:30N 26°04' W 080°01'5 9.2
2018-Jan-09 03:00N 26°06' W 080°06'1 2.2
2018-Jan-09 02:25N 26°05' W 080°07'0 0.0
2018-Jan-09 01:58N 26°05' W 080°07'0 0.0
2018-Jan-09 01:28N 26°05' W 080°07'0 0.0
2018-Jan-09 00:58N 26°05' W 080°07'0 0.0
2018-Jan-09 00:16N 26°05' W 080°07'0 0.0
2018-Jan-08 23:46N 26°05' W 080°07'0 0.0
2018-Jan-08 23:28N 26°05' W 080°07'0 0.0
2018-Jan-08 22:58N 26°05' W 080°07'0 0.0
2018-Jan-08 22:28N 26°05' W 080°07'0 0.0
2018-Jan-08 21:49N 26°05' W 080°07'0 0.0
2018-Jan-08 21:19N 26°05' W 080°07'0 0.0
2018-Jan-08 20:46N 26°05' W 080°07'0 0.0
2018-Jan-08 20:22N 26°05' W 080°07'0 0.0
2018-Jan-08 19:52N 26°05' W 080°07'0 0.0
2018-Jan-08 19:22N 26°05' W 080°07'0 0.0
2018-Jan-08 18:52N 26°05' W 080°07'0 0.0
2018-Jan-08 18:22N 26°05' W 080°07'0 0.0
2018-Jan-08 17:55N 26°05' W 080°07'0 0.0
2018-Jan-08 17:25N 26°05' W 080°07'0 0.0
2018-Jan-08 16:55N 26°05' W 080°07'0 0.0
2018-Jan-08 16:25N 26°05' W 080°07'0 0.0
2018-Jan-08 15:55N 26°05' W 080°07'0 0.0
2018-Jan-08 15:25N 26°05' W 080°07'0 0.0
2018-Jan-08 14:58N 26°05' W 080°07'  
Track history (hours):
 
Tides and Currents Weather Stations Pressure Air Temp Water Temp Dewpoint Dewpoint Depression Visibility Wind Speed Wind Dir Waves Ship Positions

Garden State

Owner: Crowley Petroleum Services, Inc., Jacksonville, FL. More information available from US FCC via Universal Licensing System and Coast Guard Vessel Documentation Center.

Last reported at 2018-Jan-18 14:42 UTC. Time now 2018-Jan-20 17:23 UTC.
Position N 24°37' W 080°47'.

Length 186 m; draft 8.6 m.

Type: Tanker. MMSI: 367102000.

Date/timePositionNaut miles runAvg speedWind from/ knotsBaromVisibWave heightAir tempDewpointWater temp
2018-Jan-18 14:42N 24°37' W 080°47'313.8
2018-Jan-18 14:27N 24°39' W 080°44'713.6
2018-Jan-18 13:58N 24°43' W 080°38'713.7
2018-Jan-18 13:28N 24°47' W 080°32'813.9
2018-Jan-18 12:53N 24°52' W 080°24'513.9
2018-Jan-18 12:30N 24°55' W 080°20'2113.2
2018-Jan-18 10:53N 25°12' W 080°06'713.3
2018-Jan-18 10:20N 25°19' W 080°03'613.1
2018-Jan-18 09:53N 25°25' W 080°01'513.2
2018-Jan-18 09:30N 25°30' W 080°01'713.3
2018-Jan-18 09:01N 25°36' W 080°00'713.9
2018-Jan-18 08:31N 25°43' W 079°59'713.8
2018-Jan-18 08:00N 25°50' W 079°59'713.4
2018-Jan-18 07:30N 25°57' W 079°60'612.9
2018-Jan-18 07:00N 26°03' W 080°01'510.0
2018-Jan-18 06:30N 26°06' W 080°06'1 1.6
2018-Jan-18 05:56N 26°06' W 080°07'0 0.0
2018-Jan-18 05:26N 26°06' W 080°07'0 0.0
2018-Jan-18 04:56N 26°06' W 080°07'0 0.0
2018-Jan-18 04:26N 26°06' W 080°07'0 0.0
2018-Jan-18 03:56N 26°06' W 080°07'0 0.0
2018-Jan-18 03:26N 26°06' W 080°07'0 0.0
2018-Jan-18 02:59N 26°06' W 080°07'0 0.0
2018-Jan-18 02:29N 26°06' W 080°07'0 0.0
2018-Jan-18 01:59N 26°06' W 080°07'0 0.0
2018-Jan-18 01:29N 26°06' W 080°07'0 0.0
2018-Jan-18 00:59N 26°06' W 080°07'0 0.0
2018-Jan-17 23:59N 26°06' W 080°07'0 0.0
2018-Jan-17 23:56N 26°06' W 080°07'  
2018-Jan-09 16:01N 24°20' W 081°50'014.3
2018-Jan-09 16:00N 24°20' W 081°49'714.0
2018-Jan-09 15:30N 24°21' W 081°42'714.1
2018-Jan-09 15:00N 24°23' W 081°34'714.0
2018-Jan-09 14:30N 24°25' W 081°27'713.9
2018-Jan-09 14:00N 24°27' W 081°20'714.4
2018-Jan-09 13:30N 24°29' W 081°12'713.9
2018-Jan-09 13:00N 24°31' W 081°05'713.9
2018-Jan-09 12:30N 24°33' W 080°58'1613.8
2018-Jan-09 11:19N 24°40' W 080°41'513.7
2018-Jan-09 10:59N 24°43' W 080°37'4513.1
2018-Jan-09 07:32N 25°17' W 080°04'013.3
2018-Jan-09 07:30N 25°17' W 080°04'613.0
2018-Jan-09 07:00N 25°23' W 080°02'612.6
2018-Jan-09 06:30N 25°29' W 080°01'612.5
2018-Jan-09 06:00N 25°36' W 080°00'612.4
2018-Jan-09 05:30N 25°42' W 079°60'612.3
2018-Jan-09 05:00N 25°48' W 079°60'612.3
2018-Jan-09 04:30N 25°54' W 079°60'611.3
2018-Jan-09 04:00N 25°60' W 079°59'5 9.1
2018-Jan-09 03:30N 26°04' W 080°01'5 9.2
2018-Jan-09 03:00N 26°06' W 080°06'1 2.2
2018-Jan-09 02:25N 26°05' W 080°07'0 0.0
2018-Jan-09 01:58N 26°05' W 080°07'0 0.0
2018-Jan-09 01:28N 26°05' W 080°07'0 0.0
2018-Jan-09 00:58N 26°05' W 080°07'0 0.0
2018-Jan-09 00:16N 26°05' W 080°07'0 0.0
2018-Jan-08 23:46N 26°05' W 080°07'0 0.0
2018-Jan-08 23:28N 26°05' W 080°07'0 0.0
2018-Jan-08 22:58N 26°05' W 080°07'0 0.0
2018-Jan-08 22:28N 26°05' W 080°07'0 0.0
2018-Jan-08 21:49N 26°05' W 080°07'0 0.0
2018-Jan-08 21:19N 26°05' W 080°07'0 0.0
2018-Jan-08 20:46N 26°05' W 080°07'0 0.0
2018-Jan-08 20:22N 26°05' W 080°07'0 0.0
2018-Jan-08 19:52N 26°05' W 080°07'0 0.0
2018-Jan-08 19:22N 26°05' W 080°07'0 0.0
2018-Jan-08 18:52N 26°05' W 080°07'0 0.0
2018-Jan-08 18:22N 26°05' W 080°07'0 0.0
2018-Jan-08 17:55N 26°05' W 080°07'0 0.0
2018-Jan-08 17:25N 26°05' W 080°07'0 0.0
2018-Jan-08 16:55N 26°05' W 080°07'0 0.0
2018-Jan-08 16:25N 26°05' W 080°07'0 0.0
2018-Jan-08 15:55N 26°05' W 080°07'0 0.0
2018-Jan-08 15:25N 26°05' W 080°07'0 0.0
2018-Jan-08 14:58N 26°05' W 080°07'  

Dump ship's entire track history